createdAt,value
2023-02-17T00:00:40.836Z,14.17
2023-02-17T00:03:43.231Z,14.17
2023-02-17T00:06:45.237Z,14.12
2023-02-17T00:09:47.259Z,14.04
2023-02-17T00:12:49.938Z,14.11
2023-02-17T00:15:52.033Z,14.17
2023-02-17T00:18:57.319Z,14.18
2023-02-17T00:22:01.559Z,14.07
2023-02-17T00:25:03.922Z,14.02
2023-02-17T00:28:06.035Z,13.97
2023-02-17T00:31:10.608Z,13.94
2023-02-17T00:34:13.120Z,13.92
2023-02-17T00:37:16.256Z,13.77
2023-02-17T00:40:18.500Z,13.58
2023-02-17T00:43:20.492Z,13.58
2023-02-17T00:46:22.972Z,13.62
2023-02-17T00:49:27.544Z,13.63
2023-02-17T00:52:29.490Z,13.61
2023-02-17T00:55:31.544Z,13.47
2023-02-17T00:58:33.826Z,13.63
2023-02-17T01:01:37.502Z,13.70
2023-02-17T01:04:40.800Z,13.88
2023-02-17T01:07:44.550Z,13.77
2023-02-17T01:10:49.296Z,13.88
2023-02-17T01:13:51.965Z,13.78
2023-02-17T01:16:54.714Z,13.76
2023-02-17T01:19:57.529Z,13.82
2023-02-17T01:22:59.611Z,13.60
2023-02-17T01:26:01.761Z,13.49
2023-02-17T01:29:05.289Z,13.66
2023-02-17T01:32:07.296Z,13.48
2023-02-17T01:35:09.924Z,13.61
2023-02-17T01:38:11.946Z,13.63
2023-02-17T01:41:16.543Z,13.66
2023-02-17T01:44:25.076Z,13.67
2023-02-17T01:47:27.529Z,13.44
2023-02-17T01:50:36.412Z,13.67
2023-02-17T01:53:48.667Z,13.68
2023-02-17T01:56:51.646Z,13.58
2023-02-17T01:59:57.067Z,13.57
2023-02-17T02:03:02.656Z,13.70
2023-02-17T02:06:11.799Z,13.77
2023-02-17T02:09:20.489Z,13.80
2023-02-17T02:12:26.959Z,13.53
2023-02-17T02:15:35.521Z,13.58
2023-02-17T02:18:46.418Z,13.75
2023-02-17T02:22:06.893Z,13.59
2023-02-17T02:25:22.250Z,13.68
2023-02-17T02:29:01.452Z,13.59
2023-02-17T02:32:18.411Z,13.65
2023-02-17T02:35:34.508Z,13.65
2023-02-17T02:38:53.186Z,13.71
2023-02-17T02:42:03.142Z,13.64
2023-02-17T02:45:09.047Z,13.47
2023-02-17T02:48:11.364Z,13.51
2023-02-17T02:51:28.440Z,13.48
2023-02-17T02:54:59.589Z,13.60
2023-02-17T02:58:14.707Z,13.55
2023-02-17T03:01:22.805Z,13.35
2023-02-17T03:04:36.286Z,13.40
2023-02-17T03:08:12.221Z,13.48
2023-02-17T03:11:32.387Z,13.35
2023-02-17T03:14:38.781Z,13.19
2023-02-17T03:17:43.264Z,13.53
2023-02-17T03:20:56.673Z,13.46
2023-02-17T03:24:00.474Z,13.58
2023-02-17T03:27:03.732Z,13.44
2023-02-17T03:30:06.913Z,13.46
2023-02-17T03:33:09.351Z,13.46
2023-02-17T03:36:11.419Z,13.48
2023-02-17T03:39:13.527Z,13.41
2023-02-17T03:42:15.900Z,13.47
2023-02-17T03:45:18.170Z,13.30
2023-02-17T03:48:20.185Z,13.10
2023-02-17T03:51:23.954Z,13.24
2023-02-17T03:54:26.971Z,13.23
2023-02-17T03:57:29.033Z,13.27
2023-02-17T04:00:31.310Z,13.31
2023-02-17T04:03:34.318Z,13.29
2023-02-17T04:06:36.879Z,13.18
2023-02-17T04:09:38.977Z,13.23
2023-02-17T04:12:41.193Z,13.22
2023-02-17T04:15:43.219Z,13.30
2023-02-17T04:18:45.226Z,13.13
2023-02-17T04:21:47.528Z,13.16
2023-02-17T04:24:49.665Z,13.19
2023-02-17T04:27:51.815Z,13.19
2023-02-17T04:30:54.005Z,13.08
2023-02-17T04:33:56.084Z,13.04
2023-02-17T04:36:58.217Z,13.11
2023-02-17T04:40:00.247Z,13.15
2023-02-17T04:43:02.503Z,13.37
2023-02-17T04:46:05.337Z,13.26
2023-02-17T04:49:07.617Z,13.22
2023-02-17T04:52:10.069Z,13.09
2023-02-17T04:55:12.208Z,13.07
2023-02-17T04:58:14.306Z,13.12
2023-02-17T05:01:16.468Z,13.21
2023-02-17T05:04:19.367Z,13.18
2023-02-17T05:07:21.751Z,13.13
2023-02-17T05:10:24.184Z,13.22
2023-02-17T05:13:27.666Z,13.22
2023-02-17T05:16:29.586Z,13.08
2023-02-17T05:19:31.703Z,12.98
2023-02-17T05:22:33.677Z,12.98
2023-02-17T05:25:35.753Z,13.10
2023-02-17T05:28:38.111Z,13.15
2023-02-17T05:31:40.365Z,13.21
2023-02-17T05:34:42.704Z,13.22
2023-02-17T05:37:44.862Z,13.27
2023-02-17T05:40:46.936Z,13.43
2023-02-17T05:43:49.047Z,13.21
2023-02-17T05:46:51.133Z,14.29
2023-02-17T05:49:53.073Z,15.03
2023-02-17T05:52:55.084Z,15.92
2023-02-17T05:55:57.290Z,16.16
2023-02-17T05:59:00.626Z,16.08
2023-02-17T06:02:02.664Z,16.05
2023-02-17T06:05:04.900Z,16.69
2023-02-17T06:08:07.244Z,17.82
2023-02-17T06:11:09.351Z,18.12
2023-02-17T06:14:11.399Z,17.16
2023-02-17T06:17:13.418Z,16.29
2023-02-17T06:20:16.021Z,16.08
2023-02-17T06:23:18.142Z,16.05
2023-02-17T06:26:20.250Z,16.09
2023-02-17T06:29:22.313Z,16.18
2023-02-17T06:32:24.396Z,16.15
2023-02-17T06:35:28.248Z,16.19
2023-02-17T06:38:30.413Z,16.12
2023-02-17T06:41:32.704Z,16.53
2023-02-17T06:44:34.780Z,18.09
2023-02-17T06:47:37.720Z,19.25
2023-02-17T06:50:39.872Z,19.63
2023-02-17T06:53:42.028Z,18.24
2023-02-17T06:56:44.205Z,17.33
2023-02-17T06:59:46.554Z,16.78
2023-02-17T07:02:48.743Z,16.62
2023-02-17T07:05:51.519Z,16.53
2023-02-17T07:08:54.585Z,16.37
2023-02-17T07:11:57.796Z,16.02
2023-02-17T07:15:00.094Z,16.14
2023-02-17T07:18:03.356Z,16.32
2023-02-17T07:21:07.224Z,16.31
2023-02-17T07:24:09.310Z,16.25
2023-02-17T07:27:11.458Z,16.32
2023-02-17T07:30:14.088Z,16.33
2023-02-17T07:33:16.321Z,16.36
2023-02-17T07:36:18.746Z,16.08
2023-02-17T07:39:20.812Z,16.12
2023-02-17T07:42:24.181Z,16.22
2023-02-17T07:45:27.363Z,16.16
2023-02-17T07:48:29.408Z,16.08
2023-02-17T07:51:31.645Z,16.14
2023-02-17T07:54:33.693Z,16.20
2023-02-17T07:57:36.112Z,16.08
2023-02-17T08:00:41.598Z,16.18
2023-02-17T08:03:43.817Z,16.12
2023-02-17T08:06:46.893Z,16.13
2023-02-17T08:10:07.660Z,16.18
2023-02-17T08:13:20.331Z,16.25
2023-02-17T08:16:22.357Z,16.27
2023-02-17T08:19:28.337Z,16.43
2023-02-17T08:22:31.933Z,16.45
2023-02-17T08:25:35.278Z,16.53
2023-02-17T08:28:37.445Z,16.56
2023-02-17T08:31:39.644Z,16.50
2023-02-17T08:34:41.799Z,16.68
2023-02-17T08:37:43.829Z,16.83
2023-02-17T08:40:45.879Z,16.92
2023-02-17T08:43:48.940Z,16.88
2023-02-17T08:46:52.560Z,16.81
2023-02-17T08:49:55.110Z,16.91
2023-02-17T08:52:57.199Z,17.42
2023-02-17T08:55:59.242Z,17.82
2023-02-17T08:59:03.398Z,17.94
2023-02-17T09:02:06.778Z,18.14
2023-02-17T09:05:08.986Z,18.16
2023-02-17T09:08:11.194Z,18.25
2023-02-17T09:11:15.574Z,18.32
2023-02-17T09:14:17.738Z,18.52
2023-02-17T09:17:19.845Z,18.98
2023-02-17T09:20:25.022Z,19.35
2023-02-17T09:23:27.334Z,19.29
2023-02-17T09:26:29.356Z,19.31
2023-02-17T09:29:31.654Z,19.48
2023-02-17T09:32:33.783Z,19.65
2023-02-17T09:35:37.803Z,19.79
2023-02-17T09:38:42.062Z,19.59
2023-02-17T09:41:52.147Z,19.61
2023-02-17T09:45:05.013Z,19.61
2023-02-17T09:48:11.952Z,20.36
2023-02-17T09:51:28.636Z,19.99
2023-02-17T09:55:00.508Z,19.85
2023-02-17T09:58:08.451Z,19.92
2023-02-17T10:01:20.395Z,19.81
2023-02-17T10:04:41.492Z,19.71
2023-02-17T10:07:53.506Z,19.61
2023-02-17T10:11:04.749Z,19.80
2023-02-17T10:14:17.707Z,20.74
2023-02-17T10:17:48.608Z,20.95
2023-02-17T10:21:19.609Z,20.95
2023-02-17T10:24:21.747Z,21.11
2023-02-17T10:27:43.360Z,20.98
2023-02-17T10:30:59.953Z,20.70
2023-02-17T10:34:12.923Z,20.59
2023-02-17T10:37:25.161Z,20.58
2023-02-17T10:40:29.227Z,20.54
2023-02-17T10:43:33.752Z,20.34
2023-02-17T10:46:35.977Z,20.18
2023-02-17T10:49:49.861Z,20.23
2023-02-17T10:52:53.173Z,20.07
2023-02-17T10:56:18.675Z,19.98
2023-02-17T10:59:39.031Z,19.96
2023-02-17T11:02:46.626Z,19.89
2023-02-17T11:06:07.201Z,19.81
2023-02-17T11:09:28.779Z,19.64
2023-02-17T11:12:40.565Z,19.81
2023-02-17T11:15:47.948Z,19.73
2023-02-17T11:18:50.564Z,19.44
2023-02-17T11:21:54.412Z,19.47
2023-02-17T11:25:02.088Z,19.41
2023-02-17T11:28:24.000Z,19.27
2023-02-17T11:31:29.684Z,19.20
2023-02-17T11:34:36.257Z,19.05
2023-02-17T11:37:42.832Z,19.05
2023-02-17T11:41:02.447Z,19.03
2023-02-17T11:44:04.693Z,19.02
2023-02-17T11:47:12.872Z,19.08
2023-02-17T11:50:41.790Z,19.25
2023-02-17T11:53:52.462Z,19.06
2023-02-17T11:57:06.594Z,18.96
2023-02-17T12:00:59.368Z,18.85
2023-02-17T12:04:10.797Z,18.89
2023-02-17T12:07:40.238Z,18.85
2023-02-17T12:11:13.381Z,18.75
2023-02-17T12:14:43.735Z,18.70
2023-02-17T12:17:56.603Z,18.59
2023-02-17T12:21:12.254Z,18.57
2023-02-17T12:24:49.633Z,18.58
2023-02-17T12:28:10.683Z,18.55
2023-02-17T12:31:42.747Z,18.50
2023-02-17T12:34:53.259Z,18.41
2023-02-17T12:38:09.724Z,18.54
2023-02-17T12:41:31.045Z,18.45
2023-02-17T12:44:41.554Z,18.42
2023-02-17T12:48:06.938Z,18.46
2023-02-17T12:51:23.378Z,18.51
2023-02-17T12:55:04.807Z,18.56
2023-02-17T12:58:16.140Z,18.64
2023-02-17T13:01:22.921Z,18.55
2023-02-17T13:04:29.187Z,18.45
2023-02-17T13:07:49.940Z,18.48
2023-02-17T13:11:05.907Z,18.45
2023-02-17T13:14:47.313Z,18.39
2023-02-17T13:18:03.199Z,18.36
2023-02-17T13:21:24.917Z,18.50
2023-02-17T13:24:36.860Z,18.37
2023-02-17T13:27:40.493Z,18.20
2023-02-17T13:30:45.346Z,18.15
2023-02-17T13:33:49.409Z,18.22
2023-02-17T13:36:51.876Z,18.11
2023-02-17T13:39:54.310Z,18.30
2023-02-17T13:42:59.506Z,18.22
2023-02-17T13:46:04.226Z,18.24
2023-02-17T13:49:06.966Z,18.13
2023-02-17T13:52:22.948Z,18.07
2023-02-17T13:55:25.134Z,17.91
2023-02-17T13:58:32.644Z,18.08
2023-02-17T14:01:38.345Z,18.07
2023-02-17T14:04:40.436Z,18.12
2023-02-17T14:07:42.568Z,18.12
2023-02-17T14:10:45.180Z,18.06
2023-02-17T14:13:49.798Z,18.13
2023-02-17T14:16:59.567Z,18.10
2023-02-17T14:20:01.803Z,17.97
2023-02-17T14:23:12.846Z,18.02
2023-02-17T14:26:30.719Z,18.01
2023-02-17T14:29:44.564Z,17.94
2023-02-17T14:32:46.613Z,17.93
2023-02-17T14:36:04.531Z,17.90
2023-02-17T14:39:09.320Z,17.83
2023-02-17T14:42:11.286Z,17.70
2023-02-17T14:45:15.404Z,17.71
2023-02-17T14:48:18.020Z,17.66
2023-02-17T14:51:23.534Z,17.64
2023-02-17T14:54:27.108Z,17.63
2023-02-17T14:57:30.947Z,17.58
2023-02-17T15:00:33.033Z,17.57
2023-02-17T15:03:35.061Z,17.50
2023-02-17T15:06:41.740Z,17.50
2023-02-17T15:09:49.110Z,17.45
2023-02-17T15:12:51.731Z,17.46
2023-02-17T15:15:53.937Z,17.41
2023-02-17T15:18:56.003Z,17.38
2023-02-17T15:22:01.398Z,17.29
2023-02-17T15:25:03.326Z,17.17
2023-02-17T15:28:06.162Z,17.17
2023-02-17T15:31:13.186Z,17.18
2023-02-17T15:34:22.590Z,17.23
2023-02-17T15:37:24.544Z,17.22
2023-02-17T15:40:28.433Z,17.22
2023-02-17T15:46:42.252Z,17.02
2023-02-17T15:49:44.955Z,16.99
2023-02-17T15:52:47.423Z,17.05
2023-02-17T15:55:50.151Z,17.13
2023-02-17T15:58:53.341Z,17.18
2023-02-17T16:02:01.360Z,17.11
2023-02-17T16:05:03.531Z,17.16
2023-02-17T16:08:06.398Z,17.14
2023-02-17T16:11:12.682Z,17.16
2023-02-17T16:14:28.492Z,17.44
2023-02-17T16:17:30.628Z,17.53
2023-02-17T16:20:34.866Z,17.53
2023-02-17T16:23:37.250Z,17.60
2023-02-17T16:26:40.132Z,17.63
2023-02-17T16:29:42.976Z,17.60
2023-02-17T16:32:45.471Z,17.55
2023-02-17T16:35:50.526Z,17.50
2023-02-17T16:38:52.550Z,17.38
2023-02-17T16:41:54.465Z,17.49
2023-02-17T16:44:56.413Z,17.40
2023-02-17T16:48:01.085Z,17.24
2023-02-17T16:51:03.005Z,17.33
2023-02-17T16:54:05.173Z,17.56
2023-02-17T16:57:07.200Z,18.90
2023-02-17T17:00:12.958Z,19.79
2023-02-17T17:03:15.098Z,19.49
2023-02-17T17:06:19.926Z,19.22
2023-02-17T17:09:24.629Z,19.16
2023-02-17T17:12:26.700Z,19.12
2023-02-17T17:15:29.681Z,19.15
2023-02-17T17:18:36.251Z,19.11
2023-02-17T17:21:38.372Z,19.22
2023-02-17T17:24:40.560Z,19.46
2023-02-17T17:27:42.488Z,19.66
2023-02-17T17:30:45.276Z,20.24
2023-02-17T17:33:48.837Z,20.48
2023-02-17T17:36:51.135Z,20.33
2023-02-17T17:39:53.059Z,20.28
2023-02-17T17:42:56.467Z,20.25
2023-02-17T17:45:58.939Z,20.27
2023-02-17T17:49:01.556Z,19.79
2023-02-17T17:52:05.145Z,20.16
2023-02-17T17:55:09.653Z,20.40
2023-02-17T17:58:16.504Z,19.89
2023-02-17T18:01:24.108Z,20.01
2023-02-17T18:04:30.178Z,20.82
2023-02-17T18:07:38.023Z,20.47
2023-02-17T18:10:42.790Z,20.03
2023-02-17T18:13:52.760Z,20.11
2023-02-17T18:16:58.424Z,20.72
2023-02-17T18:20:02.040Z,19.98
2023-02-17T18:23:04.445Z,19.97
2023-02-17T18:26:07.244Z,20.34
2023-02-17T18:29:13.964Z,21.14
2023-02-17T18:32:16.214Z,20.44
2023-02-17T18:35:19.296Z,20.41
2023-02-17T18:38:21.444Z,19.91
2023-02-17T18:41:28.066Z,19.87
2023-02-17T18:44:30.141Z,19.80
2023-02-17T18:47:32.164Z,19.69
2023-02-17T18:50:36.302Z,19.90
2023-02-17T18:53:38.739Z,19.97
2023-02-17T18:56:41.737Z,20.20
2023-02-17T18:59:44.469Z,19.98
2023-02-17T19:02:46.915Z,20.32
2023-02-17T19:05:50.014Z,20.15
2023-02-17T19:08:52.819Z,19.99
2023-02-17T19:11:55.466Z,20.13
2023-02-17T19:14:58.273Z,19.88
2023-02-17T19:18:00.684Z,19.65
2023-02-17T19:21:03.660Z,19.96
2023-02-17T19:24:10.070Z,20.39
2023-02-17T19:27:13.172Z,19.98
2023-02-17T19:30:20.097Z,19.48
2023-02-17T19:33:23.347Z,19.13
2023-02-17T19:36:26.878Z,19.21
2023-02-17T19:39:28.961Z,19.25
2023-02-17T19:42:31.973Z,19.34
2023-02-17T19:45:34.242Z,19.28
2023-02-17T19:48:38.352Z,19.37
2023-02-17T19:51:42.338Z,19.46
2023-02-17T19:54:44.756Z,19.35
2023-02-17T19:57:50.258Z,19.04
2023-02-17T20:00:55.344Z,19.30
2023-02-17T20:04:02.413Z,19.48
2023-02-17T20:07:05.403Z,19.31
2023-02-17T20:10:11.878Z,19.26
2023-02-17T20:13:14.395Z,19.66
2023-02-17T20:16:20.041Z,19.68
2023-02-17T20:19:22.426Z,19.61
2023-02-17T20:22:29.629Z,19.86
2023-02-17T20:25:32.162Z,20.29
2023-02-17T20:28:34.441Z,19.83
2023-02-17T20:31:38.205Z,20.41
2023-02-17T20:34:43.788Z,19.98
2023-02-17T20:37:45.777Z,19.75
2023-02-17T20:40:47.825Z,20.14
2023-02-17T20:43:51.014Z,20.20
2023-02-17T20:46:53.896Z,19.72
2023-02-17T20:49:56.373Z,19.68
2023-02-17T20:52:59.326Z,20.33
2023-02-17T20:56:02.787Z,19.96
2023-02-17T20:59:06.369Z,19.93
2023-02-17T21:02:12.592Z,19.76
2023-02-17T21:05:14.870Z,20.64
2023-02-17T21:08:17.022Z,20.14
2023-02-17T21:11:19.265Z,19.77
2023-02-17T21:14:21.421Z,20.66
2023-02-17T21:17:24.494Z,20.68
2023-02-17T21:20:26.526Z,19.96
2023-02-17T21:23:28.910Z,19.97
2023-02-17T21:26:34.858Z,21.37
2023-02-17T21:29:37.339Z,20.73
2023-02-17T21:32:39.494Z,19.98
2023-02-17T21:35:44.443Z,20.32
2023-02-17T21:38:47.747Z,21.37
2023-02-17T21:41:51.541Z,20.42
2023-02-17T21:44:56.898Z,19.72
2023-02-17T21:48:01.072Z,21.20
2023-02-17T21:51:10.009Z,20.89
2023-02-17T21:54:12.595Z,20.22
2023-02-17T21:57:14.834Z,20.16
2023-02-17T22:00:17.412Z,21.11
2023-02-17T22:03:19.563Z,20.55
2023-02-17T22:06:30.199Z,19.99
2023-02-17T22:09:32.269Z,19.94
2023-02-17T22:12:37.519Z,19.84
2023-02-17T22:15:40.319Z,19.68
2023-02-17T22:18:55.847Z,19.29
2023-02-17T22:22:07.319Z,19.46
2023-02-17T22:25:10.605Z,19.13
2023-02-17T22:28:17.343Z,18.93
2023-02-17T22:31:22.691Z,19.16
2023-02-17T22:34:26.237Z,19.43
2023-02-17T22:37:28.421Z,19.41
2023-02-17T22:40:31.964Z,19.42
2023-02-17T22:43:40.631Z,19.53
2023-02-17T22:46:43.857Z,19.73
2023-02-17T22:49:46.170Z,19.75
2023-02-17T22:52:48.405Z,19.68
2023-02-17T22:55:58.183Z,19.70
2023-02-17T22:59:03.908Z,19.63
2023-02-17T23:02:05.946Z,19.56
2023-02-17T23:05:08.393Z,19.41
2023-02-17T23:08:11.322Z,19.35
2023-02-17T23:11:16.304Z,19.27
2023-02-17T23:14:20.065Z,19.20
2023-02-17T23:17:22.398Z,19.06
2023-02-17T23:20:25.379Z,19.07
2023-02-17T23:23:27.432Z,19.00
2023-02-17T23:26:29.715Z,19.01
2023-02-17T23:29:32.751Z,19.02
2023-02-17T23:32:36.060Z,18.94
2023-02-17T23:35:44.896Z,18.95
2023-02-17T23:38:47.200Z,18.88
2023-02-17T23:41:49.318Z,18.81
2023-02-17T23:44:51.271Z,18.64
2023-02-17T23:47:53.364Z,18.64
2023-02-17T23:51:00.233Z,18.56
2023-02-17T23:54:02.342Z,18.53
2023-02-17T23:57:04.590Z,18.54
